sensor_id;sensor_type;location;lat;lon;timestamp;temperature;humidity
19017;DHT22;9641;51.494;6.670;2023-09-18T00:00:24;20.30;99.90
19017;DHT22;9641;51.494;6.670;2023-09-18T00:02:51;20.30;99.90
19017;DHT22;9641;51.494;6.670;2023-09-18T00:05:18;20.30;99.90
19017;DHT22;9641;51.494;6.670;2023-09-18T00:07:46;20.30;99.90
19017;DHT22;9641;51.494;6.670;2023-09-18T00:10:16;20.30;99.90
19017;DHT22;9641;51.494;6.670;2023-09-18T00:12:43;20.30;99.90
19017;DHT22;9641;51.494;6.670;2023-09-18T00:15:10;20.30;99.90
19017;DHT22;9641;51.494;6.670;2023-09-18T00:17:37;20.30;99.90
19017;DHT22;9641;51.494;6.670;2023-09-18T00:20:05;20.30;99.90
19017;DHT22;9641;51.494;6.670;2023-09-18T00:22:32;20.30;99.90
19017;DHT22;9641;51.494;6.670;2023-09-18T00:25:00;20.30;99.90
19017;DHT22;9641;51.494;6.670;2023-09-18T00:27:28;20.40;99.90
19017;DHT22;9641;51.494;6.670;2023-09-18T00:29:55;20.40;99.90
19017;DHT22;9641;51.494;6.670;2023-09-18T00:32:22;20.30;99.90
19017;DHT22;9641;51.494;6.670;2023-09-18T00:34:48;20.30;99.90
19017;DHT22;9641;51.494;6.670;2023-09-18T00:37:16;20.30;99.90
19017;DHT22;9641;51.494;6.670;2023-09-18T00:39:42;20.30;99.90
19017;DHT22;9641;51.494;6.670;2023-09-18T00:42:11;20.30;99.90
19017;DHT22;9641;51.494;6.670;2023-09-18T00:44:39;20.40;99.90
19017;DHT22;9641;51.494;6.670;2023-09-18T00:47:07;20.30;99.90
19017;DHT22;9641;51.494;6.670;2023-09-18T00:49:35;20.30;99.90
19017;DHT22;9641;51.494;6.670;2023-09-18T00:52:03;20.30;99.90
19017;DHT22;9641;51.494;6.670;2023-09-18T00:54:31;20.30;99.90
19017;DHT22;9641;51.494;6.670;2023-09-18T00:56:59;20.30;99.90
19017;DHT22;9641;51.494;6.670;2023-09-18T00:59:30;20.30;99.90
19017;DHT22;9641;51.494;6.670;2023-09-18T01:01:59;20.30;99.90
19017;DHT22;9641;51.494;6.670;2023-09-18T01:04:26;20.20;99.90
19017;DHT22;9641;51.494;6.670;2023-09-18T01:06:55;20.20;99.90
19017;DHT22;9641;51.494;6.670;2023-09-18T01:09:24;20.20;99.90
19017;DHT22;9641;51.494;6.670;2023-09-18T01:11:58;20.20;99.90
19017;DHT22;9641;51.494;6.670;2023-09-18T01:14:32;20.20;99.90
19017;DHT22;9641;51.494;6.670;2023-09-18T01:17:01;20.20;99.90
19017;DHT22;9641;51.494;6.670;2023-09-18T01:19:37;20.20;99.90
19017;DHT22;9641;51.494;6.670;2023-09-18T01:22:05;20.20;99.90
19017;DHT22;9641;51.494;6.670;2023-09-18T01:24:34;20.20;99.90
19017;DHT22;9641;51.494;6.670;2023-09-18T01:27:01;20.20;99.90
19017;DHT22;9641;51.494;6.670;2023-09-18T01:29:30;20.20;99.90
19017;DHT22;9641;51.494;6.670;2023-09-18T01:31:56;20.20;99.90
19017;DHT22;9641;51.494;6.670;2023-09-18T01:34:28;20.20;99.90
19017;DHT22;9641;51.494;6.670;2023-09-18T01:36:58;20.10;99.90
19017;DHT22;9641;51.494;6.670;2023-09-18T01:39:25;20.10;99.90
19017;DHT22;9641;51.494;6.670;2023-09-18T01:41:58;20.10;99.90
19017;DHT22;9641;51.494;6.670;2023-09-18T01:44:27;20.10;99.90
19017;DHT22;9641;51.494;6.670;2023-09-18T01:46:55;20.10;99.90
19017;DHT22;9641;51.494;6.670;2023-09-18T01:49:29;20.10;99.90
19017;DHT22;9641;51.494;6.670;2023-09-18T01:51:56;20.10;99.90
19017;DHT22;9641;51.494;6.670;2023-09-18T01:54:23;20.00;99.90
19017;DHT22;9641;51.494;6.670;2023-09-18T01:56:51;20.00;99.90
19017;DHT22;9641;51.494;6.670;2023-09-18T01:59:21;20.10;99.90
19017;DHT22;9641;51.494;6.670;2023-09-18T02:01:49;20.00;99.90
19017;DHT22;9641;51.494;6.670;2023-09-18T02:04:16;20.10;99.90
19017;DHT22;9641;51.494;6.670;2023-09-18T02:06:45;20.10;99.90
19017;DHT22;9641;51.494;6.670;2023-09-18T02:09:13;20.10;99.90
19017;DHT22;9641;51.494;6.670;2023-09-18T02:11:41;20.10;99.90
19017;DHT22;9641;51.494;6.670;2023-09-18T02:14:09;20.20;99.90
19017;DHT22;9641;51.494;6.670;2023-09-18T02:16:39;20.20;99.90
19017;DHT22;9641;51.494;6.670;2023-09-18T02:19:07;20.20;99.90
19017;DHT22;9641;51.494;6.670;2023-09-18T02:21:34;20.20;99.90
19017;DHT22;9641;51.494;6.670;2023-09-18T02:24:01;20.20;99.90
19017;DHT22;9641;51.494;6.670;2023-09-18T02:26:29;20.20;99.90
19017;DHT22;9641;51.494;6.670;2023-09-18T02:28:58;20.20;99.90
19017;DHT22;9641;51.494;6.670;2023-09-18T02:31:25;20.30;99.90
19017;DHT22;9641;51.494;6.670;2023-09-18T02:33:56;20.30;99.90
19017;DHT22;9641;51.494;6.670;2023-09-18T02:36:26;20.30;99.90
19017;DHT22;9641;51.494;6.670;2023-09-18T02:38:53;20.30;99.90
19017;DHT22;9641;51.494;6.670;2023-09-18T02:41:20;20.30;99.90
19017;DHT22;9641;51.494;6.670;2023-09-18T02:43:47;20.30;99.90
19017;DHT22;9641;51.494;6.670;2023-09-18T02:46:14;20.30;99.90
19017;DHT22;9641;51.494;6.670;2023-09-18T02:48:41;20.20;99.90
19017;DHT22;9641;51.494;6.670;2023-09-18T02:51:09;20.20;99.90
19017;DHT22;9641;51.494;6.670;2023-09-18T02:53:36;20.20;99.90
19017;DHT22;9641;51.494;6.670;2023-09-18T02:56:03;20.20;99.90
19017;DHT22;9641;51.494;6.670;2023-09-18T02:58:30;20.20;99.90
19017;DHT22;9641;51.494;6.670;2023-09-18T03:01:00;20.20;99.90
19017;DHT22;9641;51.494;6.670;2023-09-18T03:03:29;20.20;99.90
19017;DHT22;9641;51.494;6.670;2023-09-18T03:06:00;20.20;99.90
19017;DHT22;9641;51.494;6.670;2023-09-18T03:08:29;20.20;99.90
19017;DHT22;9641;51.494;6.670;2023-09-18T03:10:57;20.30;99.90
19017;DHT22;9641;51.494;6.670;2023-09-18T03:13:26;20.20;99.90
19017;DHT22;9641;51.494;6.670;2023-09-18T03:15:54;20.30;99.90
19017;DHT22;9641;51.494;6.670;2023-09-18T03:18:22;20.30;99.90
19017;DHT22;9641;51.494;6.670;2023-09-18T03:20:49;20.30;99.90
19017;DHT22;9641;51.494;6.670;2023-09-18T03:23:16;20.40;99.90
19017;DHT22;9641;51.494;6.670;2023-09-18T03:25:44;20.40;99.90
19017;DHT22;9641;51.494;6.670;2023-09-18T03:28:11;20.40;99.90
19017;DHT22;9641;51.494;6.670;2023-09-18T03:30:38;20.50;99.90
19017;DHT22;9641;51.494;6.670;2023-09-18T03:33:05;20.50;99.90
19017;DHT22;9641;51.494;6.670;2023-09-18T03:35:32;20.50;99.90
19017;DHT22;9641;51.494;6.670;2023-09-18T03:38:11;20.60;99.90
19017;DHT22;9641;51.494;6.670;2023-09-18T03:40:38;20.60;99.90
19017;DHT22;9641;51.494;6.670;2023-09-18T03:43:06;20.70;99.90
19017;DHT22;9641;51.494;6.670;2023-09-18T03:45:34;20.70;99.90
19017;DHT22;9641;51.494;6.670;2023-09-18T03:48:01;20.80;99.90
19017;DHT22;9641;51.494;6.670;2023-09-18T03:50:28;20.90;99.90
19017;DHT22;9641;51.494;6.670;2023-09-18T03:52:55;20.90;99.90
19017;DHT22;9641;51.494;6.670;2023-09-18T03:55:22;20.90;99.90
19017;DHT22;9641;51.494;6.670;2023-09-18T03:57:49;21.00;99.90
19017;DHT22;9641;51.494;6.670;2023-09-18T04:00:18;21.00;99.90
19017;DHT22;9641;51.494;6.670;2023-09-18T04:02:45;21.10;99.90
19017;DHT22;9641;51.494;6.670;2023-09-18T04:05:12;21.10;99.90
19017;DHT22;9641;51.494;6.670;2023-09-18T04:07:39;21.10;99.90
19017;DHT22;9641;51.494;6.670;2023-09-18T04:10:06;21.20;99.90
19017;DHT22;9641;51.494;6.670;2023-09-18T04:12:34;21.20;99.90
19017;DHT22;9641;51.494;6.670;2023-09-18T04:15:01;21.20;99.90
19017;DHT22;9641;51.494;6.670;2023-09-18T04:17:29;21.10;99.90
19017;DHT22;9641;51.494;6.670;2023-09-18T04:19:56;21.20;99.90
19017;DHT22;9641;51.494;6.670;2023-09-18T04:22:23;21.10;99.90
19017;DHT22;9641;51.494;6.670;2023-09-18T04:24:50;21.10;99.90
19017;DHT22;9641;51.494;6.670;2023-09-18T04:27:17;21.10;99.90
19017;DHT22;9641;51.494;6.670;2023-09-18T04:29:43;21.10;99.90
19017;DHT22;9641;51.494;6.670;2023-09-18T04:32:11;21.10;99.90
19017;DHT22;9641;51.494;6.670;2023-09-18T04:34:39;21.10;99.90
19017;DHT22;9641;51.494;6.670;2023-09-18T04:37:06;21.10;99.90
19017;DHT22;9641;51.494;6.670;2023-09-18T04:39:33;21.10;99.90
19017;DHT22;9641;51.494;6.670;2023-09-18T04:42:03;21.10;99.90
19017;DHT22;9641;51.494;6.670;2023-09-18T04:44:30;21.10;99.90
19017;DHT22;9641;51.494;6.670;2023-09-18T04:46:57;21.10;99.90
19017;DHT22;9641;51.494;6.670;2023-09-18T04:49:25;21.10;99.90
19017;DHT22;9641;51.494;6.670;2023-09-18T04:51:55;21.00;99.90
19017;DHT22;9641;51.494;6.670;2023-09-18T04:54:23;20.90;99.90
19017;DHT22;9641;51.494;6.670;2023-09-18T04:56:50;20.90;99.90
19017;DHT22;9641;51.494;6.670;2023-09-18T04:59:17;20.90;99.90
19017;DHT22;9641;51.494;6.670;2023-09-18T05:01:45;20.80;99.90
19017;DHT22;9641;51.494;6.670;2023-09-18T05:04:12;20.80;99.90
19017;DHT22;9641;51.494;6.670;2023-09-18T05:06:40;20.80;99.90
19017;DHT22;9641;51.494;6.670;2023-09-18T05:09:09;20.80;99.90
19017;DHT22;9641;51.494;6.670;2023-09-18T05:11:35;20.80;99.90
19017;DHT22;9641;51.494;6.670;2023-09-18T05:14:02;20.80;99.90
19017;DHT22;9641;51.494;6.670;2023-09-18T05:16:29;20.80;99.90
19017;DHT22;9641;51.494;6.670;2023-09-18T05:18:56;20.80;99.90
19017;DHT22;9641;51.494;6.670;2023-09-18T05:21:26;20.80;99.90
19017;DHT22;9641;51.494;6.670;2023-09-18T05:23:54;20.70;99.90
19017;DHT22;9641;51.494;6.670;2023-09-18T05:26:22;20.70;99.90
19017;DHT22;9641;51.494;6.670;2023-09-18T05:28:50;20.60;99.90
19017;DHT22;9641;51.494;6.670;2023-09-18T05:31:19;20.60;99.90
19017;DHT22;9641;51.494;6.670;2023-09-18T05:33:46;20.60;99.90
19017;DHT22;9641;51.494;6.670;2023-09-18T05:36:13;20.60;99.90
19017;DHT22;9641;51.494;6.670;2023-09-18T05:38:40;20.60;99.90
19017;DHT22;9641;51.494;6.670;2023-09-18T05:41:09;20.60;99.90
19017;DHT22;9641;51.494;6.670;2023-09-18T05:43:37;20.60;99.90
19017;DHT22;9641;51.494;6.670;2023-09-18T05:46:04;20.60;99.90
19017;DHT22;9641;51.494;6.670;2023-09-18T05:48:31;20.60;99.90
19017;DHT22;9641;51.494;6.670;2023-09-18T05:50:58;20.60;99.90
19017;DHT22;9641;51.494;6.670;2023-09-18T05:53:25;20.60;99.90
19017;DHT22;9641;51.494;6.670;2023-09-18T05:55:52;20.60;99.90
19017;DHT22;9641;51.494;6.670;2023-09-18T05:58:18;20.60;99.90
19017;DHT22;9641;51.494;6.670;2023-09-18T06:00:51;20.60;99.90
19017;DHT22;9641;51.494;6.670;2023-09-18T06:03:18;20.60;99.90
19017;DHT22;9641;51.494;6.670;2023-09-18T06:05:47;20.60;99.90
19017;DHT22;9641;51.494;6.670;2023-09-18T06:08:14;20.70;99.90
19017;DHT22;9641;51.494;6.670;2023-09-18T06:10:40;20.60;99.90
19017;DHT22;9641;51.494;6.670;2023-09-18T06:13:07;20.70;99.90
19017;DHT22;9641;51.494;6.670;2023-09-18T06:15:34;20.70;99.90
19017;DHT22;9641;51.494;6.670;2023-09-18T06:18:03;20.70;99.90
19017;DHT22;9641;51.494;6.670;2023-09-18T06:20:31;20.70;99.90
19017;DHT22;9641;51.494;6.670;2023-09-18T06:22:58;20.80;99.90
19017;DHT22;9641;51.494;6.670;2023-09-18T06:25:25;20.70;99.90
19017;DHT22;9641;51.494;6.670;2023-09-18T06:27:52;20.80;99.90
19017;DHT22;9641;51.494;6.670;2023-09-18T06:30:19;20.80;99.90
19017;DHT22;9641;51.494;6.670;2023-09-18T06:32:46;20.80;99.90
19017;DHT22;9641;51.494;6.670;2023-09-18T06:35:14;20.80;99.90
19017;DHT22;9641;51.494;6.670;2023-09-18T06:37:41;20.70;99.90
19017;DHT22;9641;51.494;6.670;2023-09-18T06:40:09;20.80;99.90
19017;DHT22;9641;51.494;6.670;2023-09-18T06:42:35;20.80;99.90
19017;DHT22;9641;51.494;6.670;2023-09-18T06:45:04;20.80;99.90
19017;DHT22;9641;51.494;6.670;2023-09-18T06:47:32;20.90;99.90
19017;DHT22;9641;51.494;6.670;2023-09-18T06:49:59;20.90;99.90
19017;DHT22;9641;51.494;6.670;2023-09-18T06:52:28;20.90;99.90
19017;DHT22;9641;51.494;6.670;2023-09-18T06:54:55;20.90;99.90
19017;DHT22;9641;51.494;6.670;2023-09-18T06:57:23;21.00;99.90
19017;DHT22;9641;51.494;6.670;2023-09-18T06:59:50;21.00;99.90
19017;DHT22;9641;51.494;6.670;2023-09-18T07:02:17;21.00;99.90
19017;DHT22;9641;51.494;6.670;2023-09-18T07:04:44;21.00;99.90
19017;DHT22;9641;51.494;6.670;2023-09-18T07:07:11;21.10;99.90
19017;DHT22;9641;51.494;6.670;2023-09-18T07:09:40;21.10;99.90
19017;DHT22;9641;51.494;6.670;2023-09-18T07:12:07;21.20;99.90
19017;DHT22;9641;51.494;6.670;2023-09-18T07:14:34;21.20;99.90
19017;DHT22;9641;51.494;6.670;2023-09-18T07:17:01;21.20;99.90
19017;DHT22;9641;51.494;6.670;2023-09-18T07:19:28;21.20;99.90
19017;DHT22;9641;51.494;6.670;2023-09-18T07:21:55;21.20;99.90
19017;DHT22;9641;51.494;6.670;2023-09-18T07:24:21;21.20;99.90
19017;DHT22;9641;51.494;6.670;2023-09-18T07:26:50;21.20;99.90
19017;DHT22;9641;51.494;6.670;2023-09-18T07:29:17;21.20;99.90
19017;DHT22;9641;51.494;6.670;2023-09-18T07:31:44;21.30;99.90
19017;DHT22;9641;51.494;6.670;2023-09-18T07:34:11;21.30;99.90
19017;DHT22;9641;51.494;6.670;2023-09-18T07:36:38;21.30;99.90
19017;DHT22;9641;51.494;6.670;2023-09-18T07:39:05;21.30;99.90
19017;DHT22;9641;51.494;6.670;2023-09-18T07:41:32;21.30;99.90
19017;DHT22;9641;51.494;6.670;2023-09-18T07:44:00;21.30;99.90
19017;DHT22;9641;51.494;6.670;2023-09-18T07:46:27;21.30;99.90
19017;DHT22;9641;51.494;6.670;2023-09-18T07:48:54;21.30;99.90
19017;DHT22;9641;51.494;6.670;2023-09-18T07:51:21;21.30;99.90
19017;DHT22;9641;51.494;6.670;2023-09-18T07:53:49;21.30;99.90
19017;DHT22;9641;51.494;6.670;2023-09-18T07:56:16;21.30;99.90
19017;DHT22;9641;51.494;6.670;2023-09-18T07:58:44;21.30;99.90
19017;DHT22;9641;51.494;6.670;2023-09-18T08:01:13;21.30;99.90
19017;DHT22;9641;51.494;6.670;2023-09-18T08:03:42;21.30;99.90
19017;DHT22;9641;51.494;6.670;2023-09-18T08:06:08;21.40;99.90
19017;DHT22;9641;51.494;6.670;2023-09-18T08:08:37;21.40;99.90
19017;DHT22;9641;51.494;6.670;2023-09-18T08:11:07;21.50;99.90
19017;DHT22;9641;51.494;6.670;2023-09-18T08:13:35;21.50;99.90
19017;DHT22;9641;51.494;6.670;2023-09-18T08:16:02;21.40;99.90
19017;DHT22;9641;51.494;6.670;2023-09-18T08:18:31;21.40;99.90
19017;DHT22;9641;51.494;6.670;2023-09-18T08:20:58;21.40;99.90
19017;DHT22;9641;51.494;6.670;2023-09-18T08:23:25;21.50;99.90
19017;DHT22;9641;51.494;6.670;2023-09-18T08:25:53;21.40;99.90
19017;DHT22;9641;51.494;6.670;2023-09-18T08:28:23;21.50;99.90
19017;DHT22;9641;51.494;6.670;2023-09-18T08:30:49;21.60;99.90
19017;DHT22;9641;51.494;6.670;2023-09-18T08:33:16;21.70;99.90
19017;DHT22;9641;51.494;6.670;2023-09-18T08:35:44;21.80;99.90
19017;DHT22;9641;51.494;6.670;2023-09-18T08:38:12;21.80;99.90
19017;DHT22;9641;51.494;6.670;2023-09-18T08:40:41;21.90;99.90
19017;DHT22;9641;51.494;6.670;2023-09-18T08:43:10;21.90;87.80
19017;DHT22;9641;51.494;6.670;2023-09-18T08:45:40;21.80;89.90
19017;DHT22;9641;51.494;6.670;2023-09-18T08:48:09;21.70;92.10
19017;DHT22;9641;51.494;6.670;2023-09-18T08:50:36;21.70;99.90
19017;DHT22;9641;51.494;6.670;2023-09-18T08:53:05;21.70;99.90
19017;DHT22;9641;51.494;6.670;2023-09-18T08:55:33;21.70;99.90
19017;DHT22;9641;51.494;6.670;2023-09-18T08:58:00;21.70;99.90
19017;DHT22;9641;51.494;6.670;2023-09-18T09:00:27;21.70;99.90
19017;DHT22;9641;51.494;6.670;2023-09-18T09:02:54;21.80;83.80
19017;DHT22;9641;51.494;6.670;2023-09-18T09:05:22;21.80;65.10
19017;DHT22;9641;51.494;6.670;2023-09-18T09:07:50;21.80;98.10
19017;DHT22;9641;51.494;6.670;2023-09-18T09:10:19;21.80;95.30
19017;DHT22;9641;51.494;6.670;2023-09-18T09:12:51;21.80;93.90
19017;DHT22;9641;51.494;6.670;2023-09-18T09:15:20;21.80;99.00
19017;DHT22;9641;51.494;6.670;2023-09-18T09:17:47;21.80;95.60
19017;DHT22;9641;51.494;6.670;2023-09-18T09:20:16;21.80;78.10
19017;DHT22;9641;51.494;6.670;2023-09-18T09:22:44;21.80;90.70
19017;DHT22;9641;51.494;6.670;2023-09-18T09:25:26;21.90;79.30
19017;DHT22;9641;51.494;6.670;2023-09-18T09:27:54;21.90;58.20
19017;DHT22;9641;51.494;6.670;2023-09-18T09:30:24;22.00;31.20
19017;DHT22;9641;51.494;6.670;2023-09-18T09:32:54;22.00;29.10
19017;DHT22;9641;51.494;6.670;2023-09-18T09:35:24;22.00;52.90
19017;DHT22;9641;51.494;6.670;2023-09-18T09:37:54;22.00;18.80
19017;DHT22;9641;51.494;6.670;2023-09-18T09:40:25;22.00;41.10
19017;DHT22;9641;51.494;6.670;2023-09-18T09:42:54;22.10;53.60
19017;DHT22;9641;51.494;6.670;2023-09-18T09:45:27;22.10;32.70
19017;DHT22;9641;51.494;6.670;2023-09-18T09:48:03;22.20;18.50
19017;DHT22;9641;51.494;6.670;2023-09-18T09:50:31;22.30;1.00
19017;DHT22;9641;51.494;6.670;2023-09-18T09:52:59;22.30;13.30
19017;DHT22;9641;51.494;6.670;2023-09-18T09:55:31;22.30;2.00
19017;DHT22;9641;51.494;6.670;2023-09-18T09:58:01;22.30;14.80
19017;DHT22;9641;51.494;6.670;2023-09-18T10:00:31;22.30;3.40
19017;DHT22;9641;51.494;6.670;2023-09-18T10:03:06;22.20;1.00
19017;DHT22;9641;51.494;6.670;2023-09-18T10:05:37;22.20;1.00
19017;DHT22;9641;51.494;6.670;2023-09-18T10:08:07;22.20;1.00
19017;DHT22;9641;51.494;6.670;2023-09-18T10:10:38;22.20;1.00
19017;DHT22;9641;51.494;6.670;2023-09-18T10:13:10;22.10;1.00
19017;DHT22;9641;51.494;6.670;2023-09-18T10:15:41;22.10;11.10
19017;DHT22;9641;51.494;6.670;2023-09-18T10:18:18;22.20;16.80
19017;DHT22;9641;51.494;6.670;2023-09-18T10:20:48;22.30;1.00
19017;DHT22;9641;51.494;6.670;2023-09-18T10:23:31;22.30;1.00
19017;DHT22;9641;51.494;6.670;2023-09-18T10:26:09;22.50;1.00
19017;DHT22;9641;51.494;6.670;2023-09-18T10:28:48;22.60;1.00
19017;DHT22;9641;51.494;6.670;2023-09-18T10:31:19;22.70;1.00
19017;DHT22;9641;51.494;6.670;2023-09-18T10:33:50;22.70;1.00
19017;DHT22;9641;51.494;6.670;2023-09-18T10:36:19;22.70;1.00
19017;DHT22;9641;51.494;6.670;2023-09-18T10:38:48;22.70;1.00
19017;DHT22;9641;51.494;6.670;2023-09-18T10:41:23;22.90;1.00
19017;DHT22;9641;51.494;6.670;2023-09-18T10:43:56;23.10;1.00
19017;DHT22;9641;51.494;6.670;2023-09-18T10:46:28;23.40;1.00
19017;DHT22;9641;51.494;6.670;2023-09-18T10:48:56;23.50;1.00
19017;DHT22;9641;51.494;6.670;2023-09-18T10:51:24;23.60;1.00
19017;DHT22;9641;51.494;6.670;2023-09-18T10:53:52;23.50;99.90
19017;DHT22;9641;51.494;6.670;2023-09-18T10:56:21;23.50;1.00
19017;DHT22;9641;51.494;6.670;2023-09-18T10:58:57;23.40;1.00
19017;DHT22;9641;51.494;6.670;2023-09-18T11:01:25;23.50;99.90
19017;DHT22;9641;51.494;6.670;2023-09-18T11:03:55;23.60;1.00
19017;DHT22;9641;51.494;6.670;2023-09-18T11:06:25;23.60;1.00
19017;DHT22;9641;51.494;6.670;2023-09-18T11:09:00;23.80;24.60
19017;DHT22;9641;51.494;6.670;2023-09-18T11:11:31;23.80;1.00
19017;DHT22;9641;51.494;6.670;2023-09-18T11:14:01;23.80;1.00
19017;DHT22;9641;51.494;6.670;2023-09-18T11:16:34;23.90;1.00
19017;DHT22;9641;51.494;6.670;2023-09-18T11:19:10;24.10;26.10
19017;DHT22;9641;51.494;6.670;2023-09-18T11:21:38;24.30;99.90
19017;DHT22;9641;51.494;6.670;2023-09-18T11:24:06;24.50;1.00
19017;DHT22;9641;51.494;6.670;2023-09-18T11:26:40;24.60;1.00
19017;DHT22;9641;51.494;6.670;2023-09-18T11:29:09;24.60;99.90
19017;DHT22;9641;51.494;6.670;2023-09-18T11:31:44;24.40;1.00
19017;DHT22;9641;51.494;6.670;2023-09-18T11:34:13;24.30;1.00
19017;DHT22;9641;51.494;6.670;2023-09-18T11:36:41;24.30;1.00
19017;DHT22;9641;51.494;6.670;2023-09-18T11:39:08;24.60;99.90
19017;DHT22;9641;51.494;6.670;2023-09-18T11:41:39;24.90;1.00
19017;DHT22;9641;51.494;6.670;2023-09-18T11:44:34;25.00;99.90
19017;DHT22;9641;51.494;6.670;2023-09-18T11:47:09;24.80;1.00
19017;DHT22;9641;51.494;6.670;2023-09-18T11:49:47;24.90;1.00
19017;DHT22;9641;51.494;6.670;2023-09-18T11:52:16;25.10;91.90
19017;DHT22;9641;51.494;6.670;2023-09-18T11:54:44;25.30;1.00
19017;DHT22;9641;51.494;6.670;2023-09-18T11:57:14;25.40;99.90
19017;DHT22;9641;51.494;6.670;2023-09-18T11:59:42;25.60;1.00
19017;DHT22;9641;51.494;6.670;2023-09-18T12:02:09;25.40;99.90
19017;DHT22;9641;51.494;6.670;2023-09-18T12:04:41;25.10;99.90
19017;DHT22;9641;51.494;6.670;2023-09-18T12:07:12;24.60;1.00
19017;DHT22;9641;51.494;6.670;2023-09-18T12:09:40;24.20;99.90
19017;DHT22;9641;51.494;6.670;2023-09-18T12:12:07;24.20;1.00
19017;DHT22;9641;51.494;6.670;2023-09-18T12:14:36;24.70;93.30
19017;DHT22;9641;51.494;6.670;2023-09-18T12:17:07;25.30;99.90
19017;DHT22;9641;51.494;6.670;2023-09-18T12:19:35;25.90;99.90
19017;DHT22;9641;51.494;6.670;2023-09-18T12:22:02;26.30;99.90
19017;DHT22;9641;51.494;6.670;2023-09-18T12:24:30;26.60;1.00
19017;DHT22;9641;51.494;6.670;2023-09-18T12:26:57;26.80;1.00
19017;DHT22;9641;51.494;6.670;2023-09-18T12:29:26;26.90;1.00
19017;DHT22;9641;51.494;6.670;2023-09-18T12:31:55;27.00;1.00
19017;DHT22;9641;51.494;6.670;2023-09-18T12:34:31;27.20;1.00
19017;DHT22;9641;51.494;6.670;2023-09-18T12:37:00;27.40;1.00
19017;DHT22;9641;51.494;6.670;2023-09-18T12:39:32;27.50;1.00
19017;DHT22;9641;51.494;6.670;2023-09-18T12:42:00;27.40;1.00
19017;DHT22;9641;51.494;6.670;2023-09-18T12:44:29;27.50;1.00
19017;DHT22;9641;51.494;6.670;2023-09-18T12:46:58;27.50;1.00
19017;DHT22;9641;51.494;6.670;2023-09-18T12:49:31;27.60;1.00
19017;DHT22;9641;51.494;6.670;2023-09-18T12:52:01;27.60;1.00
19017;DHT22;9641;51.494;6.670;2023-09-18T12:54:39;27.60;1.00
19017;DHT22;9641;51.494;6.670;2023-09-18T12:57:10;27.80;1.00
19017;DHT22;9641;51.494;6.670;2023-09-18T12:59:42;27.80;1.00
19017;DHT22;9641;51.494;6.670;2023-09-18T13:02:13;27.70;1.00
19017;DHT22;9641;51.494;6.670;2023-09-18T13:04:52;27.50;1.00
19017;DHT22;9641;51.494;6.670;2023-09-18T13:07:19;27.20;1.00
19017;DHT22;9641;51.494;6.670;2023-09-18T13:09:58;26.70;1.00
19017;DHT22;9641;51.494;6.670;2023-09-18T13:12:39;26.10;1.00
19017;DHT22;9641;51.494;6.670;2023-09-18T13:15:07;25.60;1.00
19017;DHT22;9641;51.494;6.670;2023-09-18T13:17:41;25.20;1.00
19017;DHT22;9641;51.494;6.670;2023-09-18T13:20:12;25.20;1.00
19017;DHT22;9641;51.494;6.670;2023-09-18T13:22:40;25.60;1.00
19017;DHT22;9641;51.494;6.670;2023-09-18T13:25:08;26.30;1.00
19017;DHT22;9641;51.494;6.670;2023-09-18T13:27:36;27.00;1.00
19017;DHT22;9641;51.494;6.670;2023-09-18T13:30:06;27.50;1.00
19017;DHT22;9641;51.494;6.670;2023-09-18T13:32:35;27.40;1.00
19017;DHT22;9641;51.494;6.670;2023-09-18T13:35:04;27.50;1.00
19017;DHT22;9641;51.494;6.670;2023-09-18T13:37:32;28.10;1.00
19017;DHT22;9641;51.494;6.670;2023-09-18T13:40:00;28.70;1.00
19017;DHT22;9641;51.494;6.670;2023-09-18T13:42:28;29.10;1.00
19017;DHT22;9641;51.494;6.670;2023-09-18T13:44:57;29.30;1.00
19017;DHT22;9641;51.494;6.670;2023-09-18T13:47:26;29.40;1.00
19017;DHT22;9641;51.494;6.670;2023-09-18T13:49:54;29.70;1.00
19017;DHT22;9641;51.494;6.670;2023-09-18T13:52:27;29.60;1.00
19017;DHT22;9641;51.494;6.670;2023-09-18T13:54:54;29.50;1.00
19017;DHT22;9641;51.494;6.670;2023-09-18T13:57:22;29.50;1.00
19017;DHT22;9641;51.494;6.670;2023-09-18T13:59:50;29.40;1.00
19017;DHT22;9641;51.494;6.670;2023-09-18T14:02:18;29.30;99.90
19017;DHT22;9641;51.494;6.670;2023-09-18T14:04:45;29.50;99.90
19017;DHT22;9641;51.494;6.670;2023-09-18T14:07:13;29.70;99.90
19017;DHT22;9641;51.494;6.670;2023-09-18T14:09:42;29.80;99.90
19017;DHT22;9641;51.494;6.670;2023-09-18T14:12:09;29.90;99.90
19017;DHT22;9641;51.494;6.670;2023-09-18T14:14:37;30.00;99.90
19017;DHT22;9641;51.494;6.670;2023-09-18T14:17:06;30.20;99.90
19017;DHT22;9641;51.494;6.670;2023-09-18T14:19:36;30.50;99.90
19017;DHT22;9641;51.494;6.670;2023-09-18T14:22:07;30.70;99.90
19017;DHT22;9641;51.494;6.670;2023-09-18T14:24:35;30.70;99.90
19017;DHT22;9641;51.494;6.670;2023-09-18T14:27:04;30.40;99.90
19017;DHT22;9641;51.494;6.670;2023-09-18T14:29:32;30.50;99.90
19017;DHT22;9641;51.494;6.670;2023-09-18T14:32:00;30.60;99.90
19017;DHT22;9641;51.494;6.670;2023-09-18T14:34:28;30.80;99.90
19017;DHT22;9641;51.494;6.670;2023-09-18T14:36:56;31.00;99.90
19017;DHT22;9641;51.494;6.670;2023-09-18T14:39:23;31.00;99.90
19017;DHT22;9641;51.494;6.670;2023-09-18T14:41:52;31.00;99.90
19017;DHT22;9641;51.494;6.670;2023-09-18T14:44:20;31.10;99.90
19017;DHT22;9641;51.494;6.670;2023-09-18T14:46:48;31.30;99.90
19017;DHT22;9641;51.494;6.670;2023-09-18T14:49:15;31.50;99.90
19017;DHT22;9641;51.494;6.670;2023-09-18T14:51:43;31.80;99.90
19017;DHT22;9641;51.494;6.670;2023-09-18T14:54:11;32.00;99.90
19017;DHT22;9641;51.494;6.670;2023-09-18T14:56:40;32.10;99.90
19017;DHT22;9641;51.494;6.670;2023-09-18T14:59:07;32.40;99.90
19017;DHT22;9641;51.494;6.670;2023-09-18T15:01:36;32.60;99.90
19017;DHT22;9641;51.494;6.670;2023-09-18T15:04:04;32.30;99.90
19017;DHT22;9641;51.494;6.670;2023-09-18T15:06:31;32.00;99.90
19017;DHT22;9641;51.494;6.670;2023-09-18T15:08:59;31.70;99.90
19017;DHT22;9641;51.494;6.670;2023-09-18T15:11:27;31.00;99.90
19017;DHT22;9641;51.494;6.670;2023-09-18T15:13:55;30.50;99.90
19017;DHT22;9641;51.494;6.670;2023-09-18T15:16:26;29.90;99.90
19017;DHT22;9641;51.494;6.670;2023-09-18T15:18:57;29.70;99.90
19017;DHT22;9641;51.494;6.670;2023-09-18T15:21:28;29.20;99.90
19017;DHT22;9641;51.494;6.670;2023-09-18T15:23:55;28.50;99.90
19017;DHT22;9641;51.494;6.670;2023-09-18T15:26:33;28.10;99.90
19017;DHT22;9641;51.494;6.670;2023-09-18T15:29:00;27.60;99.90
19017;DHT22;9641;51.494;6.670;2023-09-18T15:31:28;27.20;99.90
19017;DHT22;9641;51.494;6.670;2023-09-18T15:33:57;26.90;99.90
19017;DHT22;9641;51.494;6.670;2023-09-18T15:36:27;26.70;99.90
19017;DHT22;9641;51.494;6.670;2023-09-18T15:38:56;27.10;99.90
19017;DHT22;9641;51.494;6.670;2023-09-18T15:41:26;27.20;99.90
19017;DHT22;9641;51.494;6.670;2023-09-18T15:43:58;27.10;99.90
19017;DHT22;9641;51.494;6.670;2023-09-18T15:46:27;26.70;99.90
19017;DHT22;9641;51.494;6.670;2023-09-18T15:48:57;26.70;99.90
19017;DHT22;9641;51.494;6.670;2023-09-18T15:51:24;27.20;99.90
19017;DHT22;9641;51.494;6.670;2023-09-18T15:53:51;27.80;99.90
19017;DHT22;9641;51.494;6.670;2023-09-18T15:56:19;28.40;99.90
19017;DHT22;9641;51.494;6.670;2023-09-18T15:58:46;28.70;99.90